Time;durP1;ratioP1;P1;durP2;ratioP2;P2;SDS_P1;SDS_P2;PMS_P1;PMS_P2;Temp;Humidity;BMP_temperature;BMP_pressure;BME280_temperature;BME280_humidity;BME280_pressure;Samples;Min_cycle;Max_cycle;Signal;HPM_P1;HPM_P2
2024/04/05 00:01:19;;;;;;;;;;;;;;;;;;;;;
2024/04/05 00:04:20;;;;;;;;;;;;;;;;;;;;;
2024/04/05 00:07:05;;;;;;;;;;;;;;;;;;;;;
2024/04/05 00:10:01;;;;;;;5.70;2.67;;;;;;;8.82;100.00;97753.22;5093483;28;20036;-73
2024/04/05 00:12:49;;;;;;;8.38;3.83;;;;;;;8.74;100.00;97752.72;5077550;28;20444;-71
2024/04/05 00:15:58;;;;;;;5.95;3.63;;;;;;;8.66;100.00;97758.47;5076534;28;20097;-73
2024/04/05 00:18:34;;;;;;;6.70;3.33;;;;;;;8.66;100.00;97758.47;5077686;28;20085;-72
2024/04/05 00:21:23;;;;;;;3.60;2.28;;;;;;;8.66;100.00;97754.94;5075599;28;20032;-72
2024/04/05 00:24:14;;;;;;;;;;;;;;;;;;;;;
2024/04/05 00:26:51;;;;;;;7.45;2.30;;;;;;;8.35;100.00;97762.72;5093725;28;20027;-72
2024/04/05 00:29:54;;;;;;;7.20;3.33;;;;;;;8.26;100.00;97765.81;5056305;28;20093;-71
2024/04/05 00:32:31;;;;;;;8.90;3.33;;;;;;;8.36;100.00;97759.16;5087975;28;20040;-72
2024/04/05 00:35:24;;;;;;;8.88;2.92;;;;;;;8.43;100.00;97765.91;5092803;28;20084;-72
2024/04/05 00:38:05;;;;;;;;;;;;;;;;;;;;;
2024/04/05 00:46:50;;;;;;;6.50;3.42;;;;;;;8.54;100.00;97760.88;5079677;28;20036;-73
2024/04/05 00:49:27;;;;;;;6.60;3.30;;;;;;;8.53;100.00;97757.34;5075035;28;20028;-73
2024/04/05 00:52:11;;;;;;;7.70;3.00;;;;;;;8.50;100.00;97756.63;5074709;28;20122;-73
2024/04/05 00:54:54;;;;;;;5.45;2.55;;;;;;;8.44;100.00;97767.59;5058131;28;20028;-73
2024/04/05 00:57:27;;;;;;;8.02;2.60;;;;;;;8.40;100.00;97764.22;5075785;28;20035;-73
2024/04/05 01:00:18;;;;;;;;;;;;;;;;;;;;;
2024/04/05 01:06:13;;;;;;;4.05;2.60;;;;;;;8.19;100.00;97774.13;5074959;28;20044;-73
2024/04/05 01:09:37;;;;;;;5.40;2.33;;;;;;;8.15;100.00;97777.03;5057250;28;20043;-73
2024/04/05 01:12:21;;;;;;;12.35;3.92;;;;;;;8.15;100.00;97783.19;5052325;28;20031;-72
2024/04/05 01:15:06;;;;;;;8.07;3.10;;;;;;;8.01;100.00;97777.69;5071515;28;20039;-72
2024/04/05 01:18:09;;;;;;;3.15;2.10;;;;;;;7.97;100.00;97781.41;5067107;28;20040;-72
2024/04/05 01:21:20;;;;;;;;;;;;;;;;;;;;;
2024/04/05 01:24:02;;;;;;;;;;;;;;;;;;;;;
2024/04/05 01:30:15;;;;;;;;;;;;;;;;;;;;;
2024/04/05 01:33:14;;;;;;;5.03;3.07;;;;;;;7.83;100.00;97791.88;5068794;28;20057;-73
2024/04/05 01:35:52;;;;;;;7.93;3.20;;;;;;;7.85;100.00;97790.00;5092372;28;20353;-72
2024/04/05 01:38:44;;;;;;;3.45;2.60;;;;;;;7.95;100.00;97787.75;5073718;28;20107;-71
2024/04/05 01:41:35;;;;;;;9.38;4.53;;;;;;;7.93;100.00;97785.19;5091923;28;20031;-72
2024/04/05 01:44:26;;;;;;;7.88;3.70;;;;;;;7.87;100.00;97777.50;5091661;28;20024;-72
2024/04/05 01:46:57;;;;;;;7.20;4.00;;;;;;;7.82;100.00;97779.47;5073799;28;20027;-73
2024/04/05 01:50:01;;;;;;;;;;;;;;;;;;;;;
2024/04/05 01:53:07;;;;;;;5.55;2.95;;;;;;;7.65;100.00;97790.06;5059504;28;20097;-72
2024/04/05 01:55:45;;;;;;;6.18;3.30;;;;;;;7.62;100.00;97784.91;5091576;28;20505;-72
2024/04/05 02:01:08;;;;;;;5.53;3.47;;;;;;;7.56;100.00;97796.69;5083626;28;20046;-73
2024/04/05 02:03:59;;;;;;;6.18;2.85;;;;;;;7.59;100.00;97793.88;5068455;28;20519;-72
2024/04/05 02:06:47;;;;;;;9.20;3.08;;;;;;;7.59;100.00;97787.69;5006151;28;20135;-72
2024/04/05 02:09:41;;;;;;;5.22;2.55;;;;;;;7.66;100.00;97796.25;5032424;28;20464;-71
2024/04/05 02:12:21;;;;;;;8.02;2.90;;;;;;;7.59;100.00;97793.03;5048723;28;20037;-72
2024/04/05 02:14:59;;;;;;;;;;;;;;;;;;;;;
2024/04/05 02:18:13;;;;;;;;;;;;;;;;;;;;;
2024/04/05 02:20:47;;;;;;;3.97;2.65;;;;;;;7.39;100.00;97788.59;4995436;28;20040;-72
2024/04/05 02:23:49;;;;;;;5.53;2.90;;;;;;;7.44;100.00;97793.72;4993987;28;20143;-71
2024/04/05 02:26:22;;;;;;;5.10;3.00;;;;;;;7.43;100.00;97792.00;4968196;28;20088;-70
2024/04/05 02:30:02;;;;;;;;;;;;;;;;;;;;;
2024/04/05 02:33:16;;;;;;;5.60;2.72;;;;;;;7.51;100.00;97798.69;4997039;28;20046;-71
2024/04/05 02:36:13;;;;;;;6.25;3.55;;;;;;;7.62;100.00;97807.06;5036984;28;20063;-70
2024/04/05 02:38:54;;;;;;;6.80;3.03;;;;;;;7.60;100.00;97800.03;5070427;28;20052;-68
2024/04/05 02:41:41;;;;;;;;;;;;;;;;;;;;;
2024/04/05 02:44:23;;;;;;;6.88;2.75;;;;;;;7.69;100.00;97815.59;5064722;28;20034;-71
2024/04/05 02:47:21;;;;;;;13.10;3.33;;;;;;;7.63;100.00;97813.22;5053264;28;20074;-72
2024/04/05 02:53:52;;;;;;;3.78;2.83;;;;;;;7.50;100.00;97817.41;5070378;28;20040;-72
2024/04/05 02:59:23;;;;;;;14.35;5.30;;;;;;;7.57;100.00;97817.03;5047399;28;20523;-73
2024/04/05 03:02:24;;;;;;;13.35;4.22;;;;;;;7.48;100.00;97816.59;5070373;28;20044;-72
2024/04/05 03:04:54;;;;;;;11.27;4.25;;;;;;;7.38;100.00;97820.63;5059882;28;20078;-73
2024/04/05 03:10:33;;;;;;;11.40;4.68;;;;;;;7.23;100.00;97815.97;5085426;28;20028;-72
2024/04/05 03:13:30;;;;;;;10.40;3.97;;;;;;;7.22;100.00;97815.09;5072847;28;20063;-72
2024/04/05 03:16:04;;;;;;;14.05;5.32;;;;;;;7.16;100.00;97809.19;5058426;28;20465;-71
2024/04/05 03:18:34;;;;;;;6.07;3.47;;;;;;;7.05;100.00;97810.53;5054628;28;20233;-72
2024/04/05 03:24:26;;;;;;;88.50;22.77;;;;;;;7.01;100.00;97816.06;5076159;28;20044;-72
2024/04/05 03:26:54;;;;;;;74.50;19.90;;;;;;;6.98;100.00;97822.34;5073739;28;20135;-72
2024/04/05 03:29:33;;;;;;;74.60;21.15;;;;;;;6.94;100.00;97815.44;5090468;28;20028;-78
2024/04/05 03:32:42;;;;;;;64.68;22.88;;;;;;;6.95;100.00;97829.63;5056849;28;20028;-70
2024/04/05 03:35:34;;;;;;;44.85;17.08;;;;;;;6.81;100.00;97808.06;5069883;28;20123;-72
2024/04/05 03:38:32;;;;;;;28.38;10.48;;;;;;;6.78;100.00;97835.63;5058782;28;20063;-78
2024/04/05 03:41:22;;;;;;;;;;;;;;;;;;;;;
2024/04/05 03:44:04;;;;;;;13.57;6.40;;;;;;;6.82;100.00;97826.63;5094114;28;20032;-71
2024/04/05 03:46:52;;;;;;;17.65;8.13;;;;;;;6.77;100.00;97828.59;5094157;28;20020;-72
2024/04/05 03:49:46;;;;;;;28.20;7.63;;;;;;;6.80;100.00;97833.78;5093836;28;20571;-70
2024/04/05 03:52:51;;;;;;;15.07;6.40;;;;;;;6.78;100.00;97832.97;5069161;28;20085;-73
2024/04/05 03:58:57;;;;;;;27.30;10.20;;;;;;;6.76;100.00;97831.31;5064768;28;20038;-72
2024/04/05 04:01:44;;;;;;;16.65;7.65;;;;;;;6.65;100.00;97834.41;5066409;28;20487;-72
2024/04/05 04:10:51;;;;;;;20.13;8.25;;;;;;;6.63;100.00;97854.88;5064561;28;20546;-72
2024/04/05 04:13:45;;;;;;;;;;;;;;;;;;;;;
2024/04/05 04:16:40;;;;;;;22.30;7.85;;;;;;;6.57;100.00;97862.25;5076709;28;20402;-71
2024/04/05 04:19:37;;;;;;;19.05;8.27;;;;;;;6.66;100.00;97861.88;5089167;28;20120;-71
2024/04/05 04:22:34;;;;;;;18.08;8.80;;;;;;;6.71;100.00;97859.88;5112707;28;20118;-71
2024/04/05 04:25:49;;;;;;;23.25;8.68;;;;;;;6.74;100.00;97873.91;5072837;28;20040;-71
2024/04/05 04:28:45;;;;;;;31.90;11.00;;;;;;;6.90;100.00;97877.66;5074714;28;20032;-72
2024/04/05 04:31:33;;;;;;;17.10;8.00;;;;;;;6.94;100.00;97876.59;5092710;28;20032;-73
2024/04/05 04:34:49;;;;;;;26.85;8.18;;;;;;;7.02;100.00;97876.28;5076118;28;20367;-71
2024/04/05 04:37:49;;;;;;;22.77;7.68;;;;;;;6.93;100.00;97877.53;5092816;28;20047;-72
2024/04/05 04:40:25;;;;;;;16.58;7.50;;;;;;;6.95;100.00;97878.31;5062684;28;20032;-71
2024/04/05 04:43:01;;;;;;;23.63;7.15;;;;;;;7.11;100.00;97877.69;5054516;28;20054;-71
2024/04/05 04:49:29;;;;;;;29.10;8.05;;;;;;;7.44;100.00;97886.88;4987410;28;20065;-80
2024/04/05 04:52:39;;;;;;;;;;;;;;;;;;;;;
2024/04/05 04:56:16;;;;;;;;;;;;;;;;;;;;;
2024/04/05 04:59:08;;;;;;;15.43;5.97;;;;;;;8.31;100.00;97873.06;5000445;28;20045;-80
2024/04/05 05:01:57;;;;;;;17.52;7.30;;;;;;;8.56;100.00;97870.97;4993607;28;20047;-79
2024/04/05 05:05:15;;;;;;;23.60;7.53;;;;;;;9.04;100.00;97876.56;4990963;28;20030;-76
2024/04/05 05:07:58;;;;;;;;;;;;;;;;;;;;;
2024/04/05 05:10:50;;;;;;;;;;;;;;;;;;;;;
2024/04/05 05:13:55;;;;;;;;;;;;;;;;;;;;;
2024/04/05 05:16:36;;;;;;;34.78;11.40;;;;;;;9.81;100.00;97876.97;5073905;28;20081;-72
2024/04/05 05:19:18;;;;;;;43.80;11.60;;;;;;;9.60;100.00;97878.06;5052975;28;20055;-72
2024/04/05 05:25:21;;;;;;;44.00;10.52;;;;;;;10.52;100.00;97880.19;5059750;28;20514;-72
2024/04/05 05:28:03;;;;;;;29.15;9.82;;;;;;;10.73;100.00;97870.94;5073751;28;20043;-73
2024/04/05 05:31:11;;;;;;;25.98;7.68;;;;;;;10.86;100.00;97878.16;5055120;28;20032;-73
2024/04/05 05:34:24;;;;;;;25.70;7.70;;;;;;;11.42;100.00;97877.50;5093549;28;20027;-73
2024/04/05 05:37:54;;;;;;;20.08;7.40;;;;;;;12.59;100.00;97872.84;5094611;28;20044;-73
2024/04/05 05:40:39;;;;;;;36.38;9.43;;;;;;;14.07;100.00;97857.31;5084617;28;20051;-72
2024/04/05 05:43:40;;;;;;;;;;;;;;;;;;;;;
2024/04/05 05:46:50;;;;;;;11.10;6.57;;;;;;;17.17;83.71;97829.50;5072097;28;20034;-71
2024/04/05 05:50:00;;;;;;;30.88;8.68;;;;;;;17.96;73.38;97832.69;5076855;28;20081;-72
2024/04/05 05:53:27;;;;;;;15.30;7.10;;;;;;;18.19;70.45;97834.22;5089141;28;20039;-71
2024/04/05 05:56:16;;;;;;;18.05;6.55;;;;;;;18.30;67.77;97831.44;4989338;28;20057;-71
2024/04/05 05:59:08;;;;;;;;;;;;;;;;;;;;;
2024/04/05 06:02:01;;;;;;;17.38;7.45;;;;;;;19.15;63.65;97823.69;5109139;28;20449;-71
2024/04/05 06:05:06;;;;;;;15.70;6.38;;;;;;;20.01;60.16;97824.53;5025470;28;20048;-72
2024/04/05 06:08:03;;;;;;;9.93;6.32;;;;;;;20.61;56.46;97833.19;5039064;28;20047;-73
2024/04/05 06:11:19;;;;;;;21.80;6.72;;;;;;;20.61;56.87;97837.81;5088148;28;20146;-72
2024/04/05 06:14:27;;;;;;;21.48;6.20;;;;;;;21.44;54.44;97837.59;5088279;28;20020;-72
2024/04/05 06:20:27;;;;;;;14.38;6.03;;;;;;;22.79;49.20;97832.47;5064035;28;20043;-71
2024/04/05 06:26:36;;;;;;;9.52;4.68;;;;;;;22.70;48.41;97832.59;5050610;28;20074;-72
2024/04/05 06:29:45;;;;;;;;;;;;;;;;;;;;;
2024/04/05 06:33:04;;;;;;;;;;;;;;;;;;;;;
2024/04/05 06:36:14;;;;;;;8.43;4.57;;;;;;;21.02;52.59;97851.72;5053367;28;20028;-72
2024/04/05 06:38:45;;;;;;;12.30;3.90;;;;;;;21.86;50.37;97844.09;5048902;28;20045;-73
2024/04/05 06:41:45;;;;;;;12.40;4.18;;;;;;;22.26;49.68;97856.34;5049609;28;20028;-73
2024/04/05 06:44:34;;;;;;;;;;;;;;;;;;;;;
2024/04/05 06:47:17;;;;;;;14.30;7.50;;;;;;;23.00;47.48;97848.41;5051372;28;20028;-72
2024/04/05 06:49:54;;;;;;;;;;;;;;;23.20;47.05;97841.63;5051350;28;20027;-73
2024/04/05 06:52:27;;;;;;;7.95;3.50;;;;;;;23.26;46.54;97846.41;5067346;28;19963;-73
2024/04/05 06:55:08;;;;;;;8.00;3.58;;;;;;;23.19;46.02;97850.84;5050111;28;20107;-73
2024/04/05 06:57:48;;;;;;;7.65;3.65;;;;;;;21.86;48.64;97859.56;5033108;28;20029;-73
2024/04/05 07:00:42;;;;;;;11.45;3.42;;;;;;;22.95;47.71;97859.78;5048522;28;20527;-73
2024/04/05 07:03:23;;;;;;;9.20;3.38;;;;;;;24.50;44.62;97853.50;5067259;28;20051;-73
2024/04/05 07:06:10;;;;;;;;;;;;;;;;;;;;;
2024/04/05 07:09:12;;;;;;;10.25;3.72;;;;;;;26.03;41.50;97850.00;5075258;28;20024;-73
2024/04/05 07:12:06;;;;;;;6.33;3.43;;;;;;;26.08;40.76;97839.34;5090514;28;20028;-72
2024/04/05 07:15:47;;;;;;;15.88;3.40;;;;;;;25.92;40.78;97853.19;5091868;28;20851;-74
2024/04/05 07:18:47;;;;;;;9.20;4.03;;;;;;;27.17;39.24;97850.53;5021970;28;20051;-73
2024/04/05 07:21:36;;;;;;;7.47;3.80;;;;;;;27.86;38.52;97845.44;5091655;28;20024;-73
2024/04/05 07:24:18;;;;;;;18.38;4.70;;;;;;;25.89;40.33;97850.81;5091448;28;20548;-73
2024/04/05 07:30:15;;;;;;;7.20;2.72;;;;;;;26.95;39.35;97835.03;5048609;28;20470;-74
2024/04/05 07:32:54;;;;;;;10.07;3.00;;;;;;;26.73;39.34;97847.78;5060351;28;20574;-72
2024/04/05 07:39:20;;;;;;;12.85;3.08;;;;;;;26.76;39.43;97854.81;5076578;28;20059;-73
2024/04/05 07:42:19;;;;;;;8.95;2.70;;;;;;;28.25;37.76;97843.09;5091016;28;20020;-73
2024/04/05 07:45:03;;;;;;;9.55;3.03;;;;;;;28.86;36.58;97840.59;5090972;28;20119;-74
2024/04/05 07:47:48;;;;;;;6.75;3.03;;;;;;;29.72;35.27;97836.34;5056953;28;20151;-74
2024/04/05 07:51:10;;;;;;;14.18;2.88;;;;;;;28.95;35.29;97836.59;5054865;28;20043;-74
2024/04/05 07:57:40;;;;;;;;;;;;;;;;;;;;;
2024/04/05 08:03:18;;;;;;;13.93;3.30;;;;;;;29.82;34.67;97834.03;5061502;28;20418;-74
2024/04/05 08:06:44;;;;;;;;;;;;;;;;;;;;;
2024/04/05 08:10:00;;;;;;;3.55;1.40;;;;;;;29.63;33.60;97819.09;5045618;28;20055;-72
2024/04/05 08:12:55;;;;;;;5.35;1.52;;;;;;;30.26;33.31;97825.16;5073507;28;20101;-73
2024/04/05 08:15:51;;;;;;;2.95;1.27;;;;;;;31.21;30.97;97816.34;5074625;28;20483;-73
2024/04/05 08:18:45;;;;;;;4.25;1.00;;;;;;;30.21;31.32;97823.03;5074412;28;20107;-73
2024/04/05 08:21:54;;;;;;;6.72;1.30;;;;;;;29.51;31.90;97820.78;5090700;28;20475;-73
2024/04/05 08:25:10;;;;;;;2.50;0.90;;;;;;;30.12;31.09;97823.47;5080030;28;20039;-73
2024/04/05 08:28:00;;;;;;;2.00;0.45;;;;;;;30.96;29.60;97794.09;5073018;28;20123;-74
2024/04/05 08:30:44;;;;;;;4.45;0.80;;;;;;;31.64;29.73;97812.75;5089984;28;20047;-73
2024/04/05 08:33:28;;;;;;;3.85;0.90;;;;;;;32.34;28.85;97809.94;5073321;28;20024;-73
2024/04/05 08:36:15;;;;;;;3.22;0.40;;;;;;;33.70;27.35;97805.91;5105051;28;20055;-74
2024/04/05 08:39:12;;;;;;;3.53;0.90;;;;;;;33.95;27.25;97805.75;5071988;28;20039;-72
2024/04/05 08:42:14;;;;;;;8.10;0.90;;;;;;;33.30;27.33;97808.31;5106676;28;20027;-73
2024/04/05 08:44:54;;;;;;;4.07;1.17;;;;;;;32.72;28.13;97797.66;5090083;28;20036;-73
2024/04/05 08:47:48;;;;;;;2.28;1.08;;;;;;;31.34;28.64;97810.75;5092657;28;20475;-73
2024/04/05 08:56:53;;;;;;;3.05;0.88;;;;;;;34.03;26.53;97809.03;5077314;28;20032;-74
2024/04/05 08:59:30;;;;;;;8.50;1.40;;;;;;;34.24;26.57;97808.50;5070136;28;20023;-73
2024/04/05 09:02:29;;;;;;;5.13;1.00;;;;;;;35.11;26.02;97805.91;5074543;28;20071;-73
2024/04/05 09:05:41;;;;;;;2.08;0.73;;;;;;;35.20;25.16;97801.66;5092143;28;20039;-73
2024/04/05 09:08:49;;;;;;;1.75;0.85;;;;;;;32.57;27.15;97799.09;5026978;28;20060;-74
2024/04/05 09:11:57;;;;;;;4.85;1.85;;;;;;;33.04;26.83;97795.59;5014621;28;20033;-73
2024/04/05 09:15:04;;;;;;;4.22;0.93;;;;;;;33.55;26.44;97795.19;5087806;28;20399;-73
2024/04/05 09:18:09;;;;;;;;;;;;;;;;;;;;;
2024/04/05 09:20:59;;;;;;;1.05;0.65;;;;;;;34.74;25.31;97792.25;5092056;28;20049;-73
2024/04/05 09:24:14;;;;;;;1.17;0.68;;;;;;;33.01;26.04;97787.72;5073842;28;20414;-73
2024/04/05 09:27:17;;;;;;;0.90;0.90;;;;;;;32.65;27.03;97801.56;5091345;28;20070;-73
2024/04/05 09:30:17;;;;;;;4.30;0.80;;;;;;;33.47;26.13;97784.41;5057589;28;20428;-73
2024/04/05 09:33:07;;;;;;;1.33;0.90;;;;;;;34.24;26.02;97797.38;5092032;28;20027;-73
2024/04/05 09:40:04;;;;;;;4.75;1.00;;;;;;;32.65;26.71;97787.72;5045179;28;20098;-73
2024/04/05 09:42:58;;;;;;;;;;;;;;;;;;;;;
2024/04/05 09:48:50;;;;;;;2.17;0.90;;;;;;;31.29;28.58;97794.81;5077162;28;20047;-73
2024/04/05 09:55:29;;;;;;;;;;;;;;;;;;;;;
2024/04/05 09:58:28;;;;;;;1.58;1.00;;;;;;;30.46;28.85;97795.66;5091491;28;20024;-74
2024/04/05 10:01:08;;;;;;;3.60;1.55;;;;;;;30.40;29.60;97800.13;5063735;28;20035;-73
2024/04/05 10:04:07;;;;;;;7.35;4.72;;;;;;;28.63;31.38;97804.19;5106993;28;20093;-73
2024/04/05 10:07:13;;;;;;;1.00;0.90;;;;;;;29.80;30.49;97798.38;5091168;28;20036;-72
2024/04/05 10:10:00;;;;;;;3.25;0.93;;;;;;;29.00;30.29;97787.28;5070794;28;20207;-71
2024/04/05 10:12:42;;;;;;;6.95;1.02;;;;;;;28.96;31.27;97799.75;5091766;28;20035;-72
2024/04/05 10:15:20;;;;;;;3.28;0.75;;;;;;;30.12;29.84;97801.41;5089809;28;20027;-73
2024/04/05 10:17:57;;;;;;;1.27;0.70;;;;;;;28.59;31.29;97798.22;5073378;28;20074;-75
2024/04/05 10:21:07;;;;;;;;;;;;;;;;;;;;;
2024/04/05 10:30:37;;;;;;;1.27;0.70;;;;;;;31.88;27.37;97777.88;5067798;28;20385;-72
2024/04/05 10:34:04;;;;;;;2.42;0.40;;;;;;;33.09;26.42;97764.44;5067757;28;20424;-74
2024/04/05 10:37:16;;;;;;;;;;;;;;;;;;;;;
2024/04/05 10:39:57;;;;;;;5.53;1.00;;;;;;;35.52;24.55;97774.22;5090775;28;20012;-74
2024/04/05 10:42:35;;;;;;;1.25;1.02;;;;;;;33.00;25.85;97763.03;5071855;28;20071;-73
2024/04/05 10:45:32;;;;;;;1.10;0.70;;;;;;;34.06;25.67;97772.44;5074043;28;20028;-74
2024/04/05 10:51:33;;;;;;;3.42;0.80;;;;;;;35.04;24.03;97753.16;5090423;28;20050;-73
2024/04/05 10:54:28;;;;;;;1.30;1.20;;;;;;;35.85;24.00;97744.56;5072711;28;20073;-73
2024/04/05 10:57:10;;;;;;;3.88;0.90;;;;;;;36.62;23.64;97744.78;5090587;28;20093;-73
2024/04/05 10:59:43;;;;;;;3.13;0.60;;;;;;;34.40;24.36;97762.50;5067914;28;20423;-73
2024/04/05 11:05:23;;;;;;;1.50;0.80;;;;;;;35.20;24.34;97744.06;5084722;28;20051;-74
2024/04/05 11:08:25;;;;;;;3.22;0.73;;;;;;;35.52;23.74;97741.66;5059049;28;20093;-74
2024/04/05 11:11:20;;;;;;;6.70;0.68;;;;;;;35.42;24.33;97737.81;5053745;28;20489;-74
2024/04/05 11:14:14;;;;;;;3.40;1.00;;;;;;;33.18;25.54;97733.38;5054455;28;20050;-74
2024/04/05 11:17:15;;;;;;;1.30;1.00;;;;;;;35.09;24.66;97725.50;5072664;28;20499;-74
2024/04/05 11:20:05;;;;;;;4.75;0.80;;;;;;;36.90;23.56;97738.19;5090308;28;20457;-73
2024/04/05 11:26:30;;;;;;;2.42;0.50;;;;;;;35.53;23.90;97726.66;5016182;28;20524;-73
2024/04/05 11:29:27;;;;;;;6.88;0.90;;;;;;;34.24;25.22;97738.22;5011726;28;20531;-72
2024/04/05 11:35:37;;;;;;;1.52;0.70;;;;;;;34.82;24.74;97716.78;5052544;28;20052;-73
2024/04/05 11:38:38;;;;;;;6.07;0.90;;;;;;;35.00;24.38;97712.19;5083086;28;20447;-74
2024/04/05 11:41:54;;;;;;;;;;;;;;;;;;;;;
2024/04/05 11:44:53;;;;;;;6.10;0.85;;;;;;;35.45;24.01;97715.06;5068514;28;20038;-73
2024/04/05 11:47:34;;;;;;;6.25;0.70;;;;;;;35.35;24.12;97719.34;5071561;28;20126;-72
2024/04/05 11:50:11;;;;;;;;;;;;;;;34.40;24.20;97720.81;5049573;28;20040;-72
2024/04/05 11:56:43;;;;;;;0.60;0.50;;;;;;;35.83;23.56;97712.47;5051823;28;20093;-73
2024/04/05 11:59:37;;;;;;;1.65;0.70;;;;;;;35.99;23.15;97708.03;5046046;28;20511;-72
2024/04/05 12:03:05;;;;;;;1.42;0.70;;;;;;;35.91;22.97;97703.69;5056346;28;20040;-72
2024/04/05 12:05:52;;;;;;;2.05;0.60;;;;;;;37.32;22.32;97693.81;5072225;28;20119;-72
2024/04/05 12:11:44;;;;;;;2.78;1.40;;;;;;;36.47;23.16;97691.53;5124474;27;20035;-72
2024/04/05 12:14:46;;;;;;;6.00;0.73;;;;;;;36.40;22.22;97680.56;5116292;27;20062;-72
2024/04/05 12:18:06;;;;;;;7.85;1.67;;;;;;;36.16;22.40;97683.81;5134064;27;20113;-73
2024/04/05 12:20:53;;;;;;;11.50;1.00;;;;;;;32.97;24.55;97683.94;5129828;27;20119;-72
2024/04/05 12:23:29;;;;;;;4.07;0.65;;;;;;;32.96;24.90;97695.25;5118625;27;20027;-73
2024/04/05 12:29:47;;;;;;;4.15;1.52;;;;;;;33.23;25.23;97691.06;5122870;27;20042;-72
2024/04/05 12:35:39;;;;;;;;;;;;;;;;;;;;;
2024/04/05 12:38:09;;;;;;;2.53;1.20;;;;;;;34.45;23.06;97664.50;5133823;27;20023;-72
2024/04/05 12:41:12;;;;;;;4.43;0.67;;;;;;;34.61;23.58;97670.19;5133966;27;20303;-72
2024/04/05 12:44:15;;;;;;;0.52;0.52;;;;;;;35.55;22.55;97662.38;5130302;27;20047;-72
2024/04/05 12:50:25;;;;;;;2.38;1.05;;;;;;;35.54;22.73;97653.16;5108670;28;20040;-72
2024/04/05 12:53:19;;;;;;;;;;;;;;;;;;;;;
2024/04/05 12:56:22;;;;;;;11.27;3.20;;;;;;;36.01;22.13;97634.22;5112876;28;20045;-72
2024/04/05 12:58:58;;;;;;;4.93;0.80;;;;;;;35.49;23.26;97641.94;5095985;28;20063;-72
2024/04/05 13:05:11;;;;;;;1.65;1.38;;;;;;;34.27;23.68;97629.38;5104906;28;20031;-72
2024/04/05 13:07:51;;;;;;;3.22;1.25;;;;;;;33.77;23.46;97632.63;5129580;27;20143;-72
2024/04/05 13:17:32;;;;;;;;;;;;;;;;;;;;;
2024/04/05 13:20:31;;;;;;;4.60;1.10;;;;;;;31.95;24.92;97629.22;5133531;27;20022;-72
2024/04/05 13:23:38;;;;;;;2.97;1.00;;;;;;;32.28;24.35;97623.34;5133006;27;20051;-72
2024/04/05 13:33:43;;;;;;;2.70;1.30;;;;;;;31.22;25.07;97622.59;5093906;28;20039;-72
2024/04/05 13:36:26;;;;;;;;;;;;;;;;;;;;;
2024/04/05 13:39:15;;;;;;;2.35;1.10;;;;;;;31.66;24.08;97619.69;5112165;28;20023;-71
2024/04/05 13:41:59;;;;;;;1.10;0.82;;;;;;;30.27;24.71;97623.41;5093571;28;20441;-72
2024/04/05 13:48:11;;;;;;;17.83;1.50;;;;;;;30.18;25.50;97612.84;5088641;28;20188;-72
2024/04/05 13:50:57;;;;;;;4.72;1.30;;;;;;;30.52;25.41;97605.06;5091942;28;20043;-72
2024/04/05 13:53:58;;;;;;;2.55;1.10;;;;;;;30.06;25.38;97615.41;5094612;28;20034;-73
2024/04/05 13:56:43;;;;;;;6.28;1.00;;;;;;;29.41;26.49;97619.91;5111942;28;20122;-72
2024/04/05 13:59:22;;;;;;;0.50;0.50;;;;;;;29.32;26.49;97623.06;5094862;28;20036;-72
2024/04/05 14:02:11;;;;;;;4.22;1.40;;;;;;;30.07;25.93;97611.59;5111582;28;20023;-73
2024/04/05 14:08:35;;;;;;;11.65;1.63;;;;;;;30.94;25.99;97608.28;5016787;28;20152;-72
2024/04/05 14:11:33;;;;;;;;;;;;;;;31.10;25.93;97613.31;5025834;28;20060;-72
2024/04/05 14:14:56;;;;;;;5.90;1.67;;;;;;;31.97;25.41;97618.75;5023769;28;20308;-73
2024/04/05 14:27:11;;;;;;;191.70;130.52;;;;;;;30.05;26.69;97620.09;5068332;28;20047;-72
2024/04/05 14:30:10;;;;;;;;;;;;;;;;;;;;;
2024/04/05 14:36:30;;;;;;;14.15;9.48;;;;;;;29.18;27.61;97619.44;5066433;28;20024;-71
2024/04/05 14:39:21;;;;;;;7.20;3.80;;;;;;;27.93;28.58;97621.66;5051843;28;20189;-72
2024/04/05 14:45:06;;;;;;;;;;;;;;;;;;;;;
2024/04/05 14:57:01;;;;;;;3.10;1.75;;;;;;;25.62;31.99;97627.50;5024060;28;20040;-70
2024/04/05 14:59:47;;;;;;;;;;;;;;;;;;;;;
2024/04/05 15:03:06;;;;;;;117.00;72.55;;;;;;;25.01;33.09;97633.19;5047932;28;20073;-70
2024/04/05 15:06:11;;;;;;;25.25;13.63;;;;;;;24.79;34.06;97637.56;5012017;28;20033;-71
2024/04/05 15:09:30;;;;;;;;;;;;;;;;;;;;;
2024/04/05 15:12:23;;;;;;;4.00;2.33;;;;;;;24.37;33.91;97637.13;5048050;28;20044;-74
2024/04/05 15:15:17;;;;;;;34.42;16.95;;;;;;;24.36;34.55;97636.31;5039995;28;20048;-72
2024/04/05 15:18:46;;;;;;;3.13;1.80;;;;;;;24.22;34.58;97632.44;5037702;28;20480;-72
2024/04/05 15:21:48;;;;;;;;;;;;;;;;;;;;;
2024/04/05 15:28:05;;;;;;;;;;;;;;;;;;;;;
2024/04/05 15:30:49;;;;;;;2.45;1.10;;;;;;;23.59;35.55;97645.25;5057401;28;20047;-72
2024/04/05 15:33:55;;;;;;;1.80;0.90;;;;;;;23.48;35.75;97635.53;5058373;28;20044;-72
2024/04/05 15:36:51;;;;;;;4.38;1.10;;;;;;;23.37;36.09;97656.84;5073216;28;20040;-71
2024/04/05 15:40:05;;;;;;;3.67;2.17;;;;;;;23.29;36.38;97663.16;5046107;28;20518;-73
2024/04/05 15:43:02;;;;;;;1.70;1.33;;;;;;;23.15;36.24;97661.13;5011987;28;20042;-70
2024/04/05 15:46:34;;;;;;;3.35;0.60;;;;;;;23.07;36.46;97667.41;5012400;28;20413;-72
2024/04/05 15:52:38;;;;;;;3.53;1.95;;;;;;;22.93;36.94;97665.38;5051058;28;20109;-71
2024/04/05 15:55:19;;;;;;;15.63;4.90;;;;;;;22.80;37.32;97662.28;5009210;28;20463;-71
2024/04/05 15:58:15;;;;;;;2.85;1.30;;;;;;;22.73;37.67;97666.72;5056399;28;20044;-71
2024/04/05 16:01:04;;;;;;;4.50;2.30;;;;;;;22.67;37.21;97670.13;5040653;28;20035;-70
2024/04/05 16:03:52;;;;;;;;;;;;;;;;;;;;;
2024/04/05 16:10:10;;;;;;;;;;;;;;;;;;;;;
2024/04/05 16:15:59;;;;;;;1.98;1.30;;;;;;;22.16;38.40;97668.38;5069746;28;20039;-72
2024/04/05 16:18:52;;;;;;;9.63;1.75;;;;;;;22.05;38.83;97677.72;5073185;28;20103;-71
2024/04/05 16:21:43;;;;;;;10.02;1.73;;;;;;;21.92;39.07;97668.28;5088263;28;20028;-71
2024/04/05 16:24:27;;;;;;;7.05;1.73;;;;;;;21.83;39.57;97674.66;5088265;28;20059;-70
2024/04/05 16:27:01;;;;;;;1.52;1.15;;;;;;;21.67;39.69;97678.16;5072727;28;20119;-71
2024/04/05 16:30:06;;;;;;;;;;;;;;;;;;;;;
2024/04/05 16:33:00;;;;;;;2.38;1.52;;;;;;;21.43;40.58;97691.59;5066140;28;20028;-71
2024/04/05 16:39:22;;;;;;;5.53;1.02;;;;;;;21.23;41.29;97692.78;5045852;28;20162;-71
2024/04/05 16:42:14;;;;;;;4.40;2.40;;;;;;;21.14;41.54;97691.88;5054542;28;20419;-72
2024/04/05 16:45:11;;;;;;;5.37;1.67;;;;;;;20.96;41.58;97691.00;5072624;28;20020;-73
2024/04/05 16:48:09;;;;;;;7.88;1.60;;;;;;;20.81;42.34;97696.13;5029403;28;20064;-73
2024/04/05 16:50:45;;;;;;;4.72;1.90;;;;;;;20.58;43.09;97688.59;5008608;28;20036;-72
2024/04/05 16:53:41;;;;;;;7.75;1.50;;;;;;;20.47;44.33;97695.09;5054698;28;20048;-73
2024/04/05 16:56:34;;;;;;;;;;;;;;;;;;;;;
2024/04/05 16:59:29;;;;;;;9.60;2.50;;;;;;;20.04;46.79;97712.00;5072450;28;20369;-71
2024/04/05 17:02:11;;;;;;;10.48;3.50;;;;;;;19.87;48.90;97721.78;5054178;28;20095;-73
2024/04/05 17:05:09;;;;;;;13.32;2.80;;;;;;;19.73;49.69;97735.84;5056581;28;20051;-74
2024/04/05 17:08:08;;;;;;;10.93;2.60;;;;;;;19.45;52.74;97717.78;5036741;28;20481;-73
2024/04/05 17:14:26;;;;;;;12.70;2.70;;;;;;;19.15;54.67;97750.47;5049826;28;20032;-73
2024/04/05 17:17:34;;;;;;;9.55;5.07;;;;;;;18.91;57.89;97757.19;5029910;28;20095;-73
2024/04/05 17:20:19;;;;;;;14.50;4.18;;;;;;;18.74;57.09;97759.72;5051883;28;20075;-73
2024/04/05 17:23:34;;;;;;;;;;;;;;;;;;;;;
2024/04/05 17:27:05;;;;;;;;;;;;;;;;;;;;;
2024/04/05 17:30:11;;;;;;;50.42;27.52;;;;;;;18.27;63.95;97761.28;5040231;28;20041;-74
2024/04/05 17:32:51;;;;;;;15.00;7.60;;;;;;;18.22;62.16;97772.53;5071334;28;20396;-73
2024/04/05 17:36:00;;;;;;;7.90;3.00;;;;;;;18.06;63.08;97784.84;5053917;28;20029;-73
2024/04/05 17:39:11;;;;;;;7.45;2.80;;;;;;;17.94;62.38;97784.06;5062664;28;20041;-73
2024/04/05 17:45:34;;;;;;;8.32;3.38;;;;;;;17.96;63.93;97794.78;5056232;28;20044;-74
2024/04/05 17:49:10;;;;;;;;;;;;;;;;;;;;;
2024/04/05 17:51:55;;;;;;;;;;;;;;;;;;;;;
2024/04/05 17:54:38;;;;;;;4.78;2.28;;;;;;;17.72;65.67;97804.03;5071442;28;20024;-75
2024/04/05 17:57:48;;;;;;;;;;;;;;;;;;;;;
2024/04/05 18:00:34;;;;;;;7.57;2.97;;;;;;;17.62;65.14;97796.88;5069895;28;20042;-74
2024/04/05 18:03:17;;;;;;;;;;;;;;;;;;;;;
2024/04/05 18:06:17;;;;;;;;;;;;;;;;;;;;;
2024/04/05 18:09:14;;;;;;;26.02;8.00;;;;;;;17.56;67.91;97828.00;5089193;28;20047;-74
2024/04/05 18:12:23;;;;;;;;;;;;;;;;;;;;;